sensor_id;sensor_type;location;lat;lon;timestamp;P1;durP1;ratioP1;P2;durP2;ratioP2
31450;SDS011;18070;52.474;13.304;2024-03-23T00:55:53;26.98;;;4.93;;
31450;SDS011;18070;52.474;13.304;2024-03-23T00:58:18;26.48;;;5.43;;
31450;SDS011;18070;52.474;13.304;2024-03-23T01:00:44;28.08;;;6.00;;
31450;SDS011;18070;52.474;13.304;2024-03-23T01:03:09;27.92;;;5.57;;
31450;SDS011;18070;52.474;13.304;2024-03-23T01:05:35;27.38;;;4.72;;
31450;SDS011;18070;52.474;13.304;2024-03-23T01:08:00;23.98;;;5.57;;
31450;SDS011;18070;52.474;13.304;2024-03-23T01:10:26;24.13;;;6.72;;
31450;SDS011;18070;52.474;13.304;2024-03-23T01:12:51;24.55;;;4.93;;
31450;SDS011;18070;52.474;13.304;2024-03-23T01:15:17;25.58;;;4.68;;
31450;SDS011;18070;52.474;13.304;2024-03-23T01:17:42;30.02;;;5.60;;
31450;SDS011;18070;52.474;13.304;2024-03-23T01:20:08;31.20;;;5.80;;
31450;SDS011;18070;52.474;13.304;2024-03-23T01:22:34;29.63;;;5.78;;
31450;SDS011;18070;52.474;13.304;2024-03-23T01:24:59;28.95;;;6.38;;
31450;SDS011;18070;52.474;13.304;2024-03-23T01:27:25;18.90;;;4.80;;
31450;SDS011;18070;52.474;13.304;2024-03-23T01:29:50;22.88;;;5.50;;
31450;SDS011;18070;52.474;13.304;2024-03-23T01:32:17;32.30;;;5.43;;
31450;SDS011;18070;52.474;13.304;2024-03-23T01:34:43;23.48;;;4.68;;
31450;SDS011;18070;52.474;13.304;2024-03-23T01:37:09;22.80;;;5.35;;
31450;SDS011;18070;52.474;13.304;2024-03-23T01:39:34;25.00;;;5.82;;
31450;SDS011;18070;52.474;13.304;2024-03-23T01:42:00;25.20;;;5.30;;
31450;SDS011;18070;52.474;13.304;2024-03-23T01:44:25;23.52;;;5.57;;
31450;SDS011;18070;52.474;13.304;2024-03-23T01:46:51;28.95;;;5.28;;
31450;SDS011;18070;52.474;13.304;2024-03-23T01:49:17;22.92;;;5.43;;
31450;SDS011;18070;52.474;13.304;2024-03-23T01:51:42;27.63;;;5.30;;
31450;SDS011;18070;52.474;13.304;2024-03-23T01:54:09;25.05;;;6.20;;
31450;SDS011;18070;52.474;13.304;2024-03-23T01:56:35;21.15;;;5.70;;
31450;SDS011;18070;52.474;13.304;2024-03-23T01:59:04;28.33;;;6.18;;
31450;SDS011;18070;52.474;13.304;2024-03-23T02:01:30;21.17;;;5.20;;
31450;SDS011;18070;52.474;13.304;2024-03-23T02:03:56;23.67;;;5.00;;
31450;SDS011;18070;52.474;13.304;2024-03-23T02:06:22;31.77;;;6.28;;
31450;SDS011;18070;52.474;13.304;2024-03-23T02:08:49;26.30;;;5.30;;
31450;SDS011;18070;52.474;13.304;2024-03-23T02:11:15;25.30;;;5.75;;
31450;SDS011;18070;52.474;13.304;2024-03-23T02:13:40;32.97;;;6.22;;
31450;SDS011;18070;52.474;13.304;2024-03-23T02:16:06;30.92;;;5.00;;
31450;SDS011;18070;52.474;13.304;2024-03-23T02:18:32;24.85;;;5.13;;
31450;SDS011;18070;52.474;13.304;2024-03-23T02:20:58;32.55;;;6.65;;
31450;SDS011;18070;52.474;13.304;2024-03-23T02:23:24;22.85;;;5.28;;
31450;SDS011;18070;52.474;13.304;2024-03-23T02:25:49;28.15;;;5.18;;
31450;SDS011;18070;52.474;13.304;2024-03-23T02:28:15;32.22;;;6.63;;
31450;SDS011;18070;52.474;13.304;2024-03-23T02:30:41;29.55;;;6.00;;
31450;SDS011;18070;52.474;13.304;2024-03-23T02:33:07;21.10;;;5.43;;
31450;SDS011;18070;52.474;13.304;2024-03-23T02:35:33;20.45;;;5.68;;
31450;SDS011;18070;52.474;13.304;2024-03-23T02:37:58;24.83;;;5.45;;
31450;SDS011;18070;52.474;13.304;2024-03-23T02:40:24;17.10;;;5.25;;
31450;SDS011;18070;52.474;13.304;2024-03-23T02:42:50;25.58;;;5.47;;
31450;SDS011;18070;52.474;13.304;2024-03-23T02:45:16;22.77;;;5.60;;
31450;SDS011;18070;52.474;13.304;2024-03-23T02:47:42;23.45;;;5.63;;
31450;SDS011;18070;52.474;13.304;2024-03-23T02:50:08;29.00;;;5.85;;
31450;SDS011;18070;52.474;13.304;2024-03-23T02:52:34;19.85;;;5.82;;
31450;SDS011;18070;52.474;13.304;2024-03-23T02:55:00;25.38;;;5.80;;
31450;SDS011;18070;52.474;13.304;2024-03-23T02:57:27;17.05;;;4.82;;
31450;SDS011;18070;52.474;13.304;2024-03-23T02:59:52;20.23;;;5.95;;
31450;SDS011;18070;52.474;13.304;2024-03-23T03:02:18;20.45;;;4.63;;
31450;SDS011;18070;52.474;13.304;2024-03-23T03:04:43;26.45;;;5.53;;
31450;SDS011;18070;52.474;13.304;2024-03-23T03:07:09;21.85;;;4.50;;
31450;SDS011;18070;52.474;13.304;2024-03-23T03:09:35;24.98;;;5.38;;
31450;SDS011;18070;52.474;13.304;2024-03-23T03:12:03;29.48;;;5.75;;
31450;SDS011;18070;52.474;13.304;2024-03-23T03:14:28;25.80;;;5.63;;
31450;SDS011;18070;52.474;13.304;2024-03-23T03:16:54;34.55;;;5.22;;
31450;SDS011;18070;52.474;13.304;2024-03-23T03:19:20;16.80;;;5.65;;
31450;SDS011;18070;52.474;13.304;2024-03-23T03:21:45;26.95;;;5.47;;
31450;SDS011;18070;52.474;13.304;2024-03-23T03:24:12;23.08;;;5.03;;
31450;SDS011;18070;52.474;13.304;2024-03-23T03:26:38;21.80;;;5.30;;
31450;SDS011;18070;52.474;13.304;2024-03-23T03:29:03;26.30;;;5.47;;
31450;SDS011;18070;52.474;13.304;2024-03-23T03:31:29;25.77;;;5.38;;
31450;SDS011;18070;52.474;13.304;2024-03-23T03:33:54;25.38;;;5.43;;
31450;SDS011;18070;52.474;13.304;2024-03-23T03:36:20;33.85;;;5.75;;
31450;SDS011;18070;52.474;13.304;2024-03-23T03:38:46;25.33;;;6.05;;
31450;SDS011;18070;52.474;13.304;2024-03-23T03:41:11;23.48;;;4.90;;
31450;SDS011;18070;52.474;13.304;2024-03-23T03:43:37;32.28;;;5.85;;
31450;SDS011;18070;52.474;13.304;2024-03-23T03:46:03;22.48;;;5.53;;
31450;SDS011;18070;52.474;13.304;2024-03-23T03:48:28;25.40;;;5.72;;
31450;SDS011;18070;52.474;13.304;2024-03-23T03:50:54;30.50;;;5.65;;
31450;SDS011;18070;52.474;13.304;2024-03-23T03:53:20;19.80;;;4.90;;
31450;SDS011;18070;52.474;13.304;2024-03-23T03:55:46;29.95;;;6.38;;
31450;SDS011;18070;52.474;13.304;2024-03-23T03:58:11;21.80;;;5.43;;
31450;SDS011;18070;52.474;13.304;2024-03-23T04:00:37;22.05;;;5.38;;
31450;SDS011;18070;52.474;13.304;2024-03-23T04:03:02;24.15;;;5.25;;
31450;SDS011;18070;52.474;13.304;2024-03-23T04:05:28;23.70;;;5.32;;
31450;SDS011;18070;52.474;13.304;2024-03-23T04:07:53;24.27;;;5.07;;
31450;SDS011;18070;52.474;13.304;2024-03-23T04:10:19;18.25;;;4.38;;
31450;SDS011;18070;52.474;13.304;2024-03-23T04:12:45;15.65;;;4.47;;
31450;SDS011;18070;52.474;13.304;2024-03-23T04:15:12;20.88;;;5.20;;
31450;SDS011;18070;52.474;13.304;2024-03-23T04:17:37;13.60;;;3.92;;
31450;SDS011;18070;52.474;13.304;2024-03-23T04:20:03;21.70;;;4.15;;
31450;SDS011;18070;52.474;13.304;2024-03-23T04:22:33;18.35;;;5.25;;
31450;SDS011;18070;52.474;13.304;2024-03-23T04:24:59;18.73;;;4.38;;
31450;SDS011;18070;52.474;13.304;2024-03-23T04:27:28;23.33;;;4.60;;
31450;SDS011;18070;52.474;13.304;2024-03-23T04:29:54;22.45;;;4.50;;
31450;SDS011;18070;52.474;13.304;2024-03-23T04:32:19;22.65;;;4.63;;
31450;SDS011;18070;52.474;13.304;2024-03-23T04:34:45;17.85;;;4.80;;
31450;SDS011;18070;52.474;13.304;2024-03-23T04:37:10;15.10;;;4.28;;
31450;SDS011;18070;52.474;13.304;2024-03-23T04:39:36;19.42;;;5.35;;
31450;SDS011;18070;52.474;13.304;2024-03-23T04:42:02;21.20;;;4.30;;
31450;SDS011;18070;52.474;13.304;2024-03-23T04:44:28;20.45;;;4.18;;
31450;SDS011;18070;52.474;13.304;2024-03-23T04:46:54;15.88;;;4.45;;
31450;SDS011;18070;52.474;13.304;2024-03-23T04:49:20;14.57;;;3.83;;
31450;SDS011;18070;52.474;13.304;2024-03-23T04:51:45;17.45;;;3.97;;
31450;SDS011;18070;52.474;13.304;2024-03-23T04:54:11;20.20;;;4.95;;
31450;SDS011;18070;52.474;13.304;2024-03-23T04:56:37;14.32;;;3.83;;
31450;SDS011;18070;52.474;13.304;2024-03-23T04:59:03;21.58;;;4.43;;
31450;SDS011;18070;52.474;13.304;2024-03-23T05:01:30;18.27;;;3.80;;
31450;SDS011;18070;52.474;13.304;2024-03-23T05:03:59;18.88;;;3.78;;
31450;SDS011;18070;52.474;13.304;2024-03-23T05:06:25;19.38;;;4.28;;
31450;SDS011;18070;52.474;13.304;2024-03-23T05:08:51;21.08;;;3.80;;
31450;SDS011;18070;52.474;13.304;2024-03-23T05:11:17;16.33;;;4.95;;
31450;SDS011;18070;52.474;13.304;2024-03-23T05:13:42;17.08;;;4.40;;
31450;SDS011;18070;52.474;13.304;2024-03-23T05:16:08;23.17;;;4.43;;
31450;SDS011;18070;52.474;13.304;2024-03-23T05:18:34;24.65;;;4.25;;
31450;SDS011;18070;52.474;13.304;2024-03-23T05:21:00;11.90;;;3.42;;
31450;SDS011;18070;52.474;13.304;2024-03-23T05:23:26;19.10;;;4.28;;
31450;SDS011;18070;52.474;13.304;2024-03-23T05:25:53;14.75;;;4.18;;
31450;SDS011;18070;52.474;13.304;2024-03-23T05:28:18;18.17;;;3.67;;
31450;SDS011;18070;52.474;13.304;2024-03-23T05:30:49;15.48;;;3.75;;
31450;SDS011;18070;52.474;13.304;2024-03-23T05:33:16;15.10;;;4.25;;
31450;SDS011;18070;52.474;13.304;2024-03-23T05:35:42;11.98;;;3.90;;
31450;SDS011;18070;52.474;13.304;2024-03-23T05:38:08;11.80;;;3.28;;
31450;SDS011;18070;52.474;13.304;2024-03-23T05:40:33;15.90;;;4.28;;
31450;SDS011;18070;52.474;13.304;2024-03-23T05:43:02;18.00;;;3.63;;
31450;SDS011;18070;52.474;13.304;2024-03-23T05:45:28;11.82;;;3.53;;
31450;SDS011;18070;52.474;13.304;2024-03-23T05:47:54;13.95;;;3.70;;
31450;SDS011;18070;52.474;13.304;2024-03-23T05:50:21;14.65;;;3.22;;
31450;SDS011;18070;52.474;13.304;2024-03-23T05:52:47;11.35;;;3.05;;
31450;SDS011;18070;52.474;13.304;2024-03-23T05:55:14;17.73;;;3.78;;
31450;SDS011;18070;52.474;13.304;2024-03-23T05:57:39;14.20;;;3.15;;
31450;SDS011;18070;52.474;13.304;2024-03-23T06:00:05;15.00;;;3.95;;
31450;SDS011;18070;52.474;13.304;2024-03-23T06:02:35;16.08;;;4.65;;
31450;SDS011;18070;52.474;13.304;2024-03-23T06:05:01;16.45;;;5.97;;
31450;SDS011;18070;52.474;13.304;2024-03-23T06:07:27;12.43;;;4.55;;
31450;SDS011;18070;52.474;13.304;2024-03-23T06:09:52;19.23;;;5.93;;
31450;SDS011;18070;52.474;13.304;2024-03-23T06:12:18;16.38;;;5.93;;
31450;SDS011;18070;52.474;13.304;2024-03-23T06:14:43;17.10;;;5.40;;
31450;SDS011;18070;52.474;13.304;2024-03-23T06:17:09;15.00;;;4.05;;
31450;SDS011;18070;52.474;13.304;2024-03-23T06:19:34;17.30;;;4.40;;
31450;SDS011;18070;52.474;13.304;2024-03-23T06:22:00;17.00;;;4.57;;
31450;SDS011;18070;52.474;13.304;2024-03-23T06:24:26;20.35;;;6.25;;
31450;SDS011;18070;52.474;13.304;2024-03-23T06:26:51;16.70;;;5.70;;
31450;SDS011;18070;52.474;13.304;2024-03-23T06:29:17;17.63;;;4.40;;
31450;SDS011;18070;52.474;13.304;2024-03-23T06:31:42;8.73;;;4.10;;
31450;SDS011;18070;52.474;13.304;2024-03-23T06:34:08;13.50;;;3.83;;
31450;SDS011;18070;52.474;13.304;2024-03-23T06:36:34;14.70;;;3.35;;
31450;SDS011;18070;52.474;13.304;2024-03-23T06:38:59;13.13;;;4.13;;
31450;SDS011;18070;52.474;13.304;2024-03-23T06:41:25;14.75;;;4.05;;
31450;SDS011;18070;52.474;13.304;2024-03-23T06:43:51;10.68;;;3.30;;
31450;SDS011;18070;52.474;13.304;2024-03-23T06:46:16;13.40;;;3.75;;
31450;SDS011;18070;52.474;13.304;2024-03-23T06:48:42;16.85;;;4.20;;
31450;SDS011;18070;52.474;13.304;2024-03-23T06:51:10;22.55;;;5.32;;
31450;SDS011;18070;52.474;13.304;2024-03-23T06:53:36;10.93;;;4.90;;
31450;SDS011;18070;52.474;13.304;2024-03-23T06:56:01;16.90;;;4.50;;
31450;SDS011;18070;52.474;13.304;2024-03-23T06:58:27;12.68;;;3.63;;
31450;SDS011;18070;52.474;13.304;2024-03-23T07:00:52;11.18;;;3.80;;
31450;SDS011;18070;52.474;13.304;2024-03-23T07:03:18;20.55;;;4.25;;
31450;SDS011;18070;52.474;13.304;2024-03-23T07:05:44;19.38;;;3.95;;
31450;SDS011;18070;52.474;13.304;2024-03-23T07:08:11;16.02;;;4.10;;
31450;SDS011;18070;52.474;13.304;2024-03-23T07:10:39;11.43;;;3.83;;
31450;SDS011;18070;52.474;13.304;2024-03-23T07:13:05;15.45;;;4.00;;
31450;SDS011;18070;52.474;13.304;2024-03-23T07:15:30;15.38;;;3.75;;
31450;SDS011;18070;52.474;13.304;2024-03-23T07:17:56;9.55;;;3.67;;
31450;SDS011;18070;52.474;13.304;2024-03-23T07:20:22;12.70;;;3.70;;
31450;SDS011;18070;52.474;13.304;2024-03-23T07:22:47;13.68;;;3.95;;
31450;SDS011;18070;52.474;13.304;2024-03-23T07:25:13;13.77;;;4.32;;
31450;SDS011;18070;52.474;13.304;2024-03-23T07:27:38;14.25;;;4.38;;
31450;SDS011;18070;52.474;13.304;2024-03-23T07:30:04;14.70;;;4.22;;
31450;SDS011;18070;52.474;13.304;2024-03-23T07:32:31;14.38;;;4.80;;
31450;SDS011;18070;52.474;13.304;2024-03-23T07:34:56;16.92;;;4.88;;
31450;SDS011;18070;52.474;13.304;2024-03-23T07:37:22;15.60;;;4.28;;
31450;SDS011;18070;52.474;13.304;2024-03-23T07:39:47;13.90;;;3.70;;
31450;SDS011;18070;52.474;13.304;2024-03-23T07:42:13;14.35;;;4.50;;
31450;SDS011;18070;52.474;13.304;2024-03-23T07:44:39;16.00;;;4.75;;
31450;SDS011;18070;52.474;13.304;2024-03-23T07:47:05;11.68;;;3.92;;
31450;SDS011;18070;52.474;13.304;2024-03-23T07:49:30;13.55;;;4.15;;
31450;SDS011;18070;52.474;13.304;2024-03-23T07:51:56;11.93;;;3.17;;
31450;SDS011;18070;52.474;13.304;2024-03-23T07:54:21;10.38;;;3.47;;
31450;SDS011;18070;52.474;13.304;2024-03-23T07:56:47;12.38;;;3.58;;
31450;SDS011;18070;52.474;13.304;2024-03-23T07:59:12;14.95;;;4.00;;
31450;SDS011;18070;52.474;13.304;2024-03-23T08:01:38;23.45;;;4.47;;
31450;SDS011;18070;52.474;13.304;2024-03-23T08:04:04;15.75;;;3.97;;
31450;SDS011;18070;52.474;13.304;2024-03-23T08:06:31;14.15;;;4.05;;
31450;SDS011;18070;52.474;13.304;2024-03-23T08:08:56;12.30;;;4.03;;
31450;SDS011;18070;52.474;13.304;2024-03-23T08:11:29;10.25;;;3.75;;
31450;SDS011;18070;52.474;13.304;2024-03-23T08:13:55;11.80;;;3.88;;
31450;SDS011;18070;52.474;13.304;2024-03-23T08:16:21;11.30;;;3.88;;
31450;SDS011;18070;52.474;13.304;2024-03-23T08:18:47;16.15;;;4.13;;
31450;SDS011;18070;52.474;13.304;2024-03-23T08:21:13;11.02;;;3.53;;
31450;SDS011;18070;52.474;13.304;2024-03-23T08:23:39;8.25;;;3.70;;
31450;SDS011;18070;52.474;13.304;2024-03-23T08:26:08;7.00;;;3.10;;
31450;SDS011;18070;52.474;13.304;2024-03-23T08:28:35;7.45;;;2.90;;
31450;SDS011;18070;52.474;13.304;2024-03-23T08:31:01;9.15;;;2.85;;
31450;SDS011;18070;52.474;13.304;2024-03-23T08:33:28;11.30;;;3.67;;
31450;SDS011;18070;52.474;13.304;2024-03-23T08:35:55;14.18;;;3.65;;
31450;SDS011;18070;52.474;13.304;2024-03-23T08:38:25;15.77;;;3.50;;
31450;SDS011;18070;52.474;13.304;2024-03-23T08:41:01;14.00;;;3.72;;
31450;SDS011;18070;52.474;13.304;2024-03-23T08:43:28;22.35;;;4.03;;
31450;SDS011;18070;52.474;13.304;2024-03-23T08:46:09;14.75;;;3.90;;
31450;SDS011;18070;52.474;13.304;2024-03-23T08:48:37;13.10;;;3.85;;
31450;SDS011;18070;52.474;13.304;2024-03-23T08:51:09;10.23;;;3.17;;
31450;SDS011;18070;52.474;13.304;2024-03-23T08:53:35;13.70;;;4.47;;
31450;SDS011;18070;52.474;13.304;2024-03-23T08:56:01;12.73;;;3.88;;
31450;SDS011;18070;52.474;13.304;2024-03-23T08:58:28;13.52;;;4.53;;
31450;SDS011;18070;52.474;13.304;2024-03-23T09:00:55;12.07;;;3.90;;
31450;SDS011;18070;52.474;13.304;2024-03-23T09:03:22;12.63;;;4.20;;
31450;SDS011;18070;52.474;13.304;2024-03-23T09:05:49;9.50;;;2.90;;
31450;SDS011;18070;52.474;13.304;2024-03-23T09:08:14;8.43;;;2.75;;
31450;SDS011;18070;52.474;13.304;2024-03-23T09:10:40;6.97;;;2.80;;
31450;SDS011;18070;52.474;13.304;2024-03-23T09:13:06;11.35;;;3.60;;
31450;SDS011;18070;52.474;13.304;2024-03-23T09:15:33;8.82;;;2.92;;
31450;SDS011;18070;52.474;13.304;2024-03-23T09:17:59;6.88;;;2.47;;
31450;SDS011;18070;52.474;13.304;2024-03-23T09:20:25;9.07;;;3.00;;
31450;SDS011;18070;52.474;13.304;2024-03-23T09:22:51;8.88;;;2.53;;
31450;SDS011;18070;52.474;13.304;2024-03-23T09:25:16;7.95;;;2.75;;
31450;SDS011;18070;52.474;13.304;2024-03-23T09:27:42;4.05;;;2.95;;
31450;SDS011;18070;52.474;13.304;2024-03-23T09:30:07;7.72;;;2.65;;
31450;SDS011;18070;52.474;13.304;2024-03-23T09:32:35;8.20;;;2.95;;
31450;SDS011;18070;52.474;13.304;2024-03-23T09:35:00;14.07;;;3.78;;
31450;SDS011;18070;52.474;13.304;2024-03-23T09:37:26;10.60;;;3.15;;
31450;SDS011;18070;52.474;13.304;2024-03-23T09:39:51;9.93;;;3.20;;
31450;SDS011;18070;52.474;13.304;2024-03-23T09:42:17;12.27;;;4.00;;
31450;SDS011;18070;52.474;13.304;2024-03-23T09:44:43;11.57;;;3.60;;
31450;SDS011;18070;52.474;13.304;2024-03-23T09:47:09;13.82;;;4.38;;
31450;SDS011;18070;52.474;13.304;2024-03-23T09:49:34;15.98;;;3.83;;
31450;SDS011;18070;52.474;13.304;2024-03-23T09:52:03;13.80;;;3.65;;
31450;SDS011;18070;52.474;13.304;2024-03-23T09:54:29;10.23;;;4.57;;
31450;SDS011;18070;52.474;13.304;2024-03-23T09:56:55;15.13;;;3.83;;
31450;SDS011;18070;52.474;13.304;2024-03-23T09:59:20;13.30;;;3.85;;
31450;SDS011;18070;52.474;13.304;2024-03-23T10:01:46;11.60;;;4.10;;
31450;SDS011;18070;52.474;13.304;2024-03-23T10:04:12;13.45;;;3.25;;
31450;SDS011;18070;52.474;13.304;2024-03-23T10:07:10;10.32;;;3.53;;
31450;SDS011;18070;52.474;13.304;2024-03-23T10:09:36;14.45;;;4.15;;
31450;SDS011;18070;52.474;13.304;2024-03-23T10:12:35;8.45;;;3.38;;
31450;SDS011;18070;52.474;13.304;2024-03-23T10:14:53;14.18;;;3.80;;
31450;SDS011;18070;52.474;13.304;2024-03-23T10:17:19;10.35;;;3.55;;
31450;SDS011;18070;52.474;13.304;2024-03-23T10:19:49;8.32;;;3.70;;
31450;SDS011;18070;52.474;13.304;2024-03-23T10:22:23;9.23;;;3.38;;
31450;SDS011;18070;52.474;13.304;2024-03-23T10:24:51;12.30;;;3.33;;
31450;SDS011;18070;52.474;13.304;2024-03-23T10:27:21;10.65;;;3.35;;
31450;SDS011;18070;52.474;13.304;2024-03-23T10:29:47;15.55;;;3.53;;
31450;SDS011;18070;52.474;13.304;2024-03-23T10:32:14;15.25;;;3.78;;
31450;SDS011;18070;52.474;13.304;2024-03-23T10:34:41;14.10;;;3.17;;
31450;SDS011;18070;52.474;13.304;2024-03-23T10:37:07;8.98;;;4.40;;
31450;SDS011;18070;52.474;13.304;2024-03-23T10:39:34;10.95;;;3.65;;
31450;SDS011;18070;52.474;13.304;2024-03-23T10:42:03;11.77;;;3.47;;
31450;SDS011;18070;52.474;13.304;2024-03-23T10:44:34;10.48;;;3.70;;
31450;SDS011;18070;52.474;13.304;2024-03-23T10:47:03;13.88;;;3.92;;
31450;SDS011;18070;52.474;13.304;2024-03-23T10:49:30;13.50;;;3.35;;
31450;SDS011;18070;52.474;13.304;2024-03-23T10:52:00;19.13;;;3.67;;
31450;SDS011;18070;52.474;13.304;2024-03-23T10:54:27;11.55;;;3.38;;
31450;SDS011;18070;52.474;13.304;2024-03-23T10:57:10;12.98;;;3.72;;
31450;SDS011;18070;52.474;13.304;2024-03-23T10:59:42;7.65;;;3.55;;
31450;SDS011;18070;52.474;13.304;2024-03-23T11:02:18;9.63;;;3.50;;
31450;SDS011;18070;52.474;13.304;2024-03-23T11:04:45;12.75;;;3.85;;
31450;SDS011;18070;52.474;13.304;2024-03-23T11:07:32;13.38;;;3.88;;
31450;SDS011;18070;52.474;13.304;2024-03-23T11:09:58;11.82;;;3.72;;
31450;SDS011;18070;52.474;13.304;2024-03-23T11:12:25;13.57;;;3.65;;
31450;SDS011;18070;52.474;13.304;2024-03-23T11:14:52;11.35;;;4.07;;
31450;SDS011;18070;52.474;13.304;2024-03-23T11:17:19;18.42;;;4.70;;
31450;SDS011;18070;52.474;13.304;2024-03-23T11:20:06;10.60;;;4.13;;
31450;SDS011;18070;52.474;13.304;2024-03-23T11:22:38;15.15;;;4.82;;
31450;SDS011;18070;52.474;13.304;2024-03-23T11:25:24;18.83;;;4.80;;
31450;SDS011;18070;52.474;13.304;2024-03-23T11:27:51;15.43;;;4.85;;
31450;SDS011;18070;52.474;13.304;2024-03-23T11:30:22;16.98;;;4.85;;
31450;SDS011;18070;52.474;13.304;2024-03-23T11:32:54;12.05;;;4.60;;
31450;SDS011;18070;52.474;13.304;2024-03-23T11:35:24;13.32;;;4.70;;
31450;SDS011;18070;52.474;13.304;2024-03-23T11:38:05;10.55;;;3.85;;
31450;SDS011;18070;52.474;13.304;2024-03-23T11:40:35;14.93;;;4.30;;
31450;SDS011;18070;52.474;13.304;2024-03-23T11:43:05;6.30;;;3.00;;
31450;SDS011;18070;52.474;13.304;2024-03-23T11:45:37;8.85;;;2.55;;
31450;SDS011;18070;52.474;13.304;2024-03-23T11:48:09;11.40;;;3.70;;
31450;SDS011;18070;52.474;13.304;2024-03-23T11:50:39;9.68;;;3.15;;
31450;SDS011;18070;52.474;13.304;2024-03-23T11:55:45;10.73;;;3.65;;
31450;SDS011;18070;52.474;13.304;2024-03-23T11:58:11;10.63;;;3.88;;
31450;SDS011;18070;52.474;13.304;2024-03-23T12:00:38;23.40;;;3.88;;
31450;SDS011;18070;52.474;13.304;2024-03-23T12:03:04;17.77;;;3.17;;
31450;SDS011;18070;52.474;13.304;2024-03-23T12:05:31;15.50;;;4.15;;
31450;SDS011;18070;52.474;13.304;2024-03-23T12:10:44;20.40;;;3.67;;
31450;SDS011;18070;52.474;13.304;2024-03-23T12:13:14;9.43;;;3.38;;
31450;SDS011;18070;52.474;13.304;2024-03-23T12:15:42;10.15;;;3.85;;
31450;SDS011;18070;52.474;13.304;2024-03-23T12:18:08;14.65;;;4.18;;
31450;SDS011;18070;52.474;13.304;2024-03-23T12:20:34;15.80;;;3.55;;
31450;SDS011;18070;52.474;13.304;2024-03-23T12:23:06;11.30;;;3.33;;
31450;SDS011;18070;52.474;13.304;2024-03-23T12:25:32;11.52;;;3.50;;
31450;SDS011;18070;52.474;13.304;2024-03-23T12:27:59;11.55;;;3.53;;
31450;SDS011;18070;52.474;13.304;2024-03-23T12:30:24;9.52;;;3.35;;
31450;SDS011;18070;52.474;13.304;2024-03-23T12:32:50;9.65;;;3.60;;
31450;SDS011;18070;52.474;13.304;2024-03-23T12:35:16;14.32;;;3.63;;
31450;SDS011;18070;52.474;13.304;2024-03-23T12:37:41;10.52;;;3.10;;
31450;SDS011;18070;52.474;13.304;2024-03-23T12:40:08;6.78;;;2.47;;
31450;SDS011;18070;52.474;13.304;2024-03-23T12:42:34;8.52;;;2.78;;
31450;SDS011;18070;52.474;13.304;2024-03-23T12:44:59;11.35;;;2.97;;
31450;SDS011;18070;52.474;13.304;2024-03-23T12:47:25;9.13;;;3.08;;
31450;SDS011;18070;52.474;13.304;2024-03-23T12:49:50;9.63;;;3.20;;
31450;SDS011;18070;52.474;13.304;2024-03-23T12:52:17;5.50;;;2.80;;
31450;SDS011;18070;52.474;13.304;2024-03-23T12:54:43;7.25;;;2.88;;
31450;SDS011;18070;52.474;13.304;2024-03-23T12:57:08;6.70;;;3.05;;
31450;SDS011;18070;52.474;13.304;2024-03-23T12:59:34;20.25;;;3.30;;
31450;SDS011;18070;52.474;13.304;2024-03-23T13:02:00;7.45;;;3.20;;
31450;SDS011;18070;52.474;13.304;2024-03-23T13:04:26;8.00;;;2.88;;
31450;SDS011;18070;52.474;13.304;2024-03-23T13:06:51;14.13;;;3.10;;
31450;SDS011;18070;52.474;13.304;2024-03-23T13:09:17;9.02;;;3.25;;
31450;SDS011;18070;52.474;13.304;2024-03-23T13:11:43;13.85;;;4.00;;
31450;SDS011;18070;52.474;13.304;2024-03-23T13:14:08;16.20;;;3.90;;
31450;SDS011;18070;52.474;13.304;2024-03-23T13:16:34;13.88;;;3.80;;
31450;SDS011;18070;52.474;13.304;2024-03-23T13:18:59;10.25;;;3.30;;
31450;SDS011;18070;52.474;13.304;2024-03-23T13:21:26;8.95;;;3.42;;
31450;SDS011;18070;52.474;13.304;2024-03-23T13:23:51;9.82;;;3.58;;
31450;SDS011;18070;52.474;13.304;2024-03-23T13:26:17;14.52;;;3.40;;
31450;SDS011;18070;52.474;13.304;2024-03-23T13:28:42;5.00;;;3.10;;
31450;SDS011;18070;52.474;13.304;2024-03-23T13:31:09;14.57;;;3.15;;
31450;SDS011;18070;52.474;13.304;2024-03-23T13:33:35;13.65;;;4.25;;
31450;SDS011;18070;52.474;13.304;2024-03-23T13:36:00;11.00;;;4.13;;
31450;SDS011;18070;52.474;13.304;2024-03-23T13:38:27;11.57;;;4.40;;
31450;SDS011;18070;52.474;13.304;2024-03-23T13:40:54;17.63;;;3.97;;
31450;SDS011;18070;52.474;13.304;2024-03-23T13:43:21;14.32;;;4.43;;
31450;SDS011;18070;52.474;13.304;2024-03-23T13:45:48;18.90;;;4.28;;
31450;SDS011;18070;52.474;13.304;2024-03-23T13:48:16;19.90;;;4.40;;
31450;SDS011;18070;52.474;13.304;2024-03-23T13:50:43;14.45;;;4.85;;
31450;SDS011;18070;52.474;13.304;2024-03-23T13:53:08;15.65;;;5.05;;
31450;SDS011;18070;52.474;13.304;2024-03-23T13:55:34;13.63;;;4.57;;
31450;SDS011;18070;52.474;13.304;2024-03-23T13:57:59;20.73;;;5.22;;
31450;SDS011;18070;52.474;13.304;2024-03-23T14:00:25;15.20;;;4.38;;
31450;SDS011;18070;52.474;13.304;2024-03-23T14:02:50;19.42;;;4.63;;
31450;SDS011;18070;52.474;13.304;2024-03-23T14:05:16;17.30;;;4.30;;
31450;SDS011;18070;52.474;13.304;2024-03-23T14:07:41;18.75;;;4.05;;
31450;SDS011;18070;52.474;13.304;2024-03-23T14:10:07;17.70;;;4.93;;
31450;SDS011;18070;52.474;13.304;2024-03-23T14:12:35;15.80;;;4.45;;
31450;SDS011;18070;52.474;13.304;2024-03-23T14:15:01;13.60;;;4.78;;
31450;SDS011;18070;52.474;13.304;2024-03-23T14:17:29;12.60;;;3.70;;
31450;SDS011;18070;52.474;13.304;2024-03-23T14:19:55;11.20;;;4.70;;
31450;SDS011;18070;52.474;13.304;2024-03-23T14:22:21;15.77;;;4.32;;
31450;SDS011;18070;52.474;13.304;2024-03-23T14:24:47;20.42;;;4.57;;
31450;SDS011;18070;52.474;13.304;2024-03-23T14:27:13;18.13;;;5.20;;
31450;SDS011;18070;52.474;13.304;2024-03-23T14:29:38;18.83;;;5.15;;
31450;SDS011;18070;52.474;13.304;2024-03-23T14:32:04;12.27;;;4.53;;
31450;SDS011;18070;52.474;13.304;2024-03-23T14:34:30;15.73;;;4.78;;
31450;SDS011;18070;52.474;13.304;2024-03-23T14:36:55;21.50;;;5.38;;
31450;SDS011;18070;52.474;13.304;2024-03-23T14:39:24;19.08;;;5.25;;
31450;SDS011;18070;52.474;13.304;2024-03-23T14:41:50;19.80;;;5.55;;
31450;SDS011;18070;52.474;13.304;2024-03-23T14:44:16;16.83;;;4.88;;
31450;SDS011;18070;52.474;13.304;2024-03-23T14:46:41;18.33;;;4.70;;
31450;SDS011;18070;52.474;13.304;2024-03-23T14:49:08;16.80;;;5.72;;
31450;SDS011;18070;52.474;13.304;2024-03-23T14:51:33;12.48;;;4.72;;
31450;SDS011;18070;52.474;13.304;2024-03-23T14:53:59;14.05;;;4.35;;
31450;SDS011;18070;52.474;13.304;2024-03-23T14:56:25;7.30;;;3.95;;
31450;SDS011;18070;52.474;13.304;2024-03-23T14:58:53;9.95;;;3.20;;
31450;SDS011;18070;52.474;13.304;2024-03-23T15:01:20;9.27;;;3.30;;
31450;SDS011;18070;52.474;13.304;2024-03-23T15:03:46;7.15;;;3.25;;
31450;SDS011;18070;52.474;13.304;2024-03-23T15:06:12;6.88;;;2.70;;
31450;SDS011;18070;52.474;13.304;2024-03-23T15:08:38;6.30;;;3.20;;
31450;SDS011;18070;52.474;13.304;2024-03-23T15:11:05;6.20;;;3.00;;
31450;SDS011;18070;52.474;13.304;2024-03-23T15:13:34;5.07;;;2.80;;
31450;SDS011;18070;52.474;13.304;2024-03-23T15:16:00;8.02;;;2.90;;
31450;SDS011;18070;52.474;13.304;2024-03-23T15:18:28;6.30;;;2.90;;
31450;SDS011;18070;52.474;13.304;2024-03-23T15:20:55;9.98;;;3.15;;